createdAt,value
2022-11-04T00:00:40.069Z,86.62
2022-11-04T00:03:10.376Z,86.64
2022-11-04T00:05:40.397Z,86.64
2022-11-04T00:08:26.873Z,87.11
2022-11-04T00:11:15.429Z,87.54
2022-11-04T00:13:45.635Z,87.58
2022-11-04T00:16:34.177Z,87.09
2022-11-04T00:19:04.203Z,87.22
2022-11-04T00:21:51.310Z,87.48
2022-11-04T00:24:38.746Z,87.56
2022-11-04T00:27:28.551Z,86.57
2022-11-04T00:29:58.506Z,86.94
2022-11-04T00:32:45.939Z,86.65
2022-11-04T00:35:15.743Z,85.74
2022-11-04T00:37:46.495Z,85.53
2022-11-04T00:40:17.858Z,84.97
2022-11-04T00:42:47.776Z,84.57
2022-11-04T00:45:17.837Z,83.83
2022-11-04T00:47:47.706Z,84.41
2022-11-04T00:50:17.233Z,84.44
2022-11-04T00:52:46.998Z,84.57
2022-11-04T00:55:16.869Z,83.97
2022-11-04T00:57:46.653Z,83.58
2022-11-04T01:00:16.803Z,84.09
2022-11-04T01:02:46.892Z,83.91
2022-11-04T01:05:16.623Z,83.98
2022-11-04T01:07:46.397Z,84.46
2022-11-04T01:10:16.348Z,84.27
2022-11-04T01:12:46.257Z,83.86
2022-11-04T01:15:15.858Z,83.15
2022-11-04T01:17:45.618Z,83.72
2022-11-04T01:20:17.872Z,84.17
2022-11-04T01:22:48.286Z,84.58
2022-11-04T01:25:18.361Z,84.40
2022-11-04T01:27:48.019Z,84.34
2022-11-04T01:30:17.491Z,84.36
2022-11-04T01:32:47.516Z,84.26
2022-11-04T01:35:17.281Z,83.82
2022-11-04T01:37:47.198Z,83.54
2022-11-04T01:40:17.860Z,83.74
2022-11-04T01:42:48.188Z,83.51
2022-11-04T01:45:20.382Z,83.52
2022-11-04T01:48:08.339Z,83.36
2022-11-04T01:50:38.681Z,83.80
2022-11-04T01:53:17.085Z,84.90
2022-11-04T01:55:49.948Z,85.01
2022-11-04T01:58:21.503Z,84.45
2022-11-04T02:00:51.591Z,86.03
2022-11-04T02:03:33.434Z,85.38
2022-11-04T02:06:03.709Z,84.95
2022-11-04T02:11:03.822Z,85.75
2022-11-04T02:13:35.760Z,85.34
2022-11-04T02:16:27.809Z,86.49
2022-11-04T02:19:21.712Z,86.22
2022-11-04T02:22:03.291Z,86.10
2022-11-04T02:24:58.425Z,86.48
2022-11-04T02:28:01.280Z,86.55
2022-11-04T02:30:42.890Z,86.77
2022-11-04T02:33:30.311Z,86.71
2022-11-04T02:36:23.694Z,87.27
2022-11-04T02:39:05.087Z,85.62
2022-11-04T02:41:58.848Z,86.40
2022-11-04T02:44:49.523Z,86.40
2022-11-04T02:47:22.314Z,85.99
2022-11-04T02:50:01.267Z,85.85
2022-11-04T02:52:51.990Z,87.27
2022-11-04T02:55:33.381Z,86.28
2022-11-04T02:58:06.132Z,85.94
2022-11-04T03:00:37.507Z,85.84
2022-11-04T03:03:10.779Z,86.63
2022-11-04T03:05:43.508Z,85.68
2022-11-04T03:08:16.073Z,85.06
2022-11-04T03:10:49.007Z,85.78
2022-11-04T03:13:24.579Z,85.43
2022-11-04T03:15:57.193Z,85.20
2022-11-04T03:18:45.945Z,85.20
2022-11-04T03:21:18.331Z,84.95
2022-11-04T03:23:48.325Z,84.67
2022-11-04T03:26:23.860Z,84.89
2022-11-04T03:29:15.662Z,84.79
2022-11-04T03:32:03.660Z,84.55
2022-11-04T03:34:33.758Z,84.55
2022-11-04T03:37:03.993Z,84.72
2022-11-04T03:39:34.359Z,83.74
2022-11-04T03:42:08.724Z,84.10
2022-11-04T03:44:38.560Z,84.14
2022-11-04T03:47:08.327Z,84.14
2022-11-04T03:49:38.221Z,84.66
2022-11-04T03:52:09.429Z,84.68
2022-11-04T03:54:39.538Z,83.92
2022-11-04T03:57:20.790Z,84.45
2022-11-04T03:59:59.389Z,84.24
2022-11-04T04:02:44.363Z,83.59
2022-11-04T04:05:34.674Z,83.90
2022-11-04T04:08:22.446Z,84.06
2022-11-04T04:10:55.268Z,83.88
2022-11-04T04:13:29.988Z,83.54
2022-11-04T04:16:05.568Z,83.57
2022-11-04T04:18:54.114Z,83.45
2022-11-04T04:21:24.751Z,84.10
2022-11-04T04:24:15.578Z,83.81
2022-11-04T04:27:05.350Z,83.38
2022-11-04T04:29:35.825Z,83.20
2022-11-04T04:32:07.901Z,83.12
2022-11-04T04:34:38.513Z,83.02
2022-11-04T04:37:14.084Z,83.22
2022-11-04T04:40:03.839Z,82.73
2022-11-04T04:42:52.491Z,82.88
2022-11-04T04:45:27.746Z,83.29
2022-11-04T04:47:58.383Z,83.08
2022-11-04T04:50:33.766Z,83.29
2022-11-04T04:53:04.491Z,83.46
2022-11-04T04:55:39.008Z,83.59
2022-11-04T04:58:08.309Z,83.63
2022-11-04T05:00:38.066Z,83.81
2022-11-04T05:03:08.129Z,83.31
2022-11-04T05:05:38.506Z,83.38
2022-11-04T05:08:10.502Z,83.61
2022-11-04T05:10:40.734Z,83.35
2022-11-04T05:13:29.317Z,83.27
2022-11-04T05:16:00.928Z,83.10
2022-11-04T05:18:30.706Z,82.77
2022-11-04T05:21:02.040Z,83.29
2022-11-04T05:23:31.872Z,83.71
2022-11-04T05:26:01.497Z,83.91
2022-11-04T05:28:31.100Z,84.25
2022-11-04T05:31:06.079Z,83.31
2022-11-04T05:33:36.115Z,83.22
2022-11-04T05:36:15.226Z,83.22
2022-11-04T05:38:45.370Z,83.60
2022-11-04T05:41:16.863Z,83.11
2022-11-04T05:43:46.990Z,83.64
2022-11-04T05:46:17.131Z,83.48
2022-11-04T05:48:47.184Z,83.66
2022-11-04T05:51:19.635Z,83.40
2022-11-04T05:53:49.527Z,82.90
2022-11-04T05:56:19.327Z,82.72
2022-11-04T05:58:49.326Z,83.20
2022-11-04T06:01:36.777Z,82.37
2022-11-04T06:04:07.997Z,82.59
2022-11-04T06:06:38.990Z,82.64
2022-11-04T06:09:09.356Z,82.90
2022-11-04T06:11:39.691Z,83.47
2022-11-04T06:14:11.591Z,82.98
2022-11-04T06:16:41.217Z,83.52
2022-11-04T06:19:15.119Z,82.79
2022-11-04T06:21:42.828Z,83.13
2022-11-04T06:24:14.228Z,83.30
2022-11-04T06:26:44.014Z,84.01
2022-11-04T06:29:13.955Z,83.92
2022-11-04T06:31:43.814Z,83.47
2022-11-04T06:34:15.888Z,83.43
2022-11-04T06:36:46.094Z,83.71
2022-11-04T06:39:15.951Z,84.09
2022-11-04T06:41:50.436Z,84.16
2022-11-04T06:44:17.193Z,83.71
2022-11-04T06:46:47.084Z,83.71
2022-11-04T06:49:20.014Z,83.05
2022-11-04T06:51:49.925Z,82.90
2022-11-04T06:54:20.250Z,82.70
2022-11-04T06:56:50.491Z,82.97
2022-11-04T06:59:22.186Z,82.97
2022-11-04T07:01:52.400Z,82.22
2022-11-04T07:04:22.276Z,82.82
2022-11-04T07:06:52.042Z,82.61
2022-11-04T07:09:21.771Z,83.08
2022-11-04T07:11:51.544Z,82.67
2022-11-04T07:14:21.303Z,82.67
2022-11-04T07:16:51.612Z,82.30
2022-11-04T07:19:21.655Z,82.30
2022-11-04T07:21:51.433Z,82.78
2022-11-04T07:24:21.341Z,82.26
2022-11-04T07:26:51.229Z,82.85
2022-11-04T07:29:21.371Z,82.40
2022-11-04T07:31:51.563Z,82.75
2022-11-04T07:34:21.460Z,82.87
2022-11-04T07:36:51.628Z,82.87
2022-11-04T07:39:21.864Z,82.49
2022-11-04T07:41:54.339Z,82.25
2022-11-04T07:44:23.644Z,82.98
2022-11-04T07:46:53.686Z,83.13
2022-11-04T07:49:23.428Z,82.70
2022-11-04T07:51:53.457Z,83.47
2022-11-04T07:54:22.930Z,83.76
2022-11-04T07:56:53.016Z,83.14
2022-11-04T07:59:23.169Z,83.53
2022-11-04T08:01:54.006Z,83.38
2022-11-04T08:04:23.565Z,82.74
2022-11-04T08:06:53.404Z,82.56
2022-11-04T08:09:23.504Z,83.09
2022-11-04T08:11:53.416Z,83.38
2022-11-04T08:14:22.866Z,82.60
2022-11-04T08:16:52.840Z,82.85
2022-11-04T08:19:22.954Z,82.39
2022-11-04T08:21:52.780Z,82.11
2022-11-04T08:24:22.531Z,82.67
2022-11-04T08:26:52.346Z,81.77
2022-11-04T08:29:22.491Z,81.86
2022-11-04T08:31:52.310Z,81.26
2022-11-04T08:34:22.399Z,80.92
2022-11-04T08:36:53.950Z,80.52
2022-11-04T08:39:24.547Z,80.29
2022-11-04T08:41:54.523Z,80.15
2022-11-04T08:44:24.577Z,80.68
2022-11-04T08:46:54.372Z,80.32
2022-11-04T08:49:24.467Z,80.96
2022-11-04T08:51:58.499Z,80.26
2022-11-04T08:54:29.194Z,80.08
2022-11-04T08:56:59.021Z,78.30
2022-11-04T08:59:28.979Z,78.30
2022-11-04T09:02:01.521Z,78.50
2022-11-04T09:04:31.498Z,78.50
2022-11-04T09:07:08.061Z,78.08
2022-11-04T09:09:35.584Z,77.92
2022-11-04T09:12:05.785Z,78.54
2022-11-04T09:14:35.557Z,77.55
2022-11-04T09:17:05.674Z,75.99
2022-11-04T09:19:35.509Z,75.34
2022-11-04T09:22:05.272Z,74.54
2022-11-04T09:24:35.490Z,73.13
2022-11-04T09:27:06.807Z,73.83
2022-11-04T09:29:37.009Z,73.49
2022-11-04T09:32:06.950Z,73.44
2022-11-04T09:34:36.835Z,73.44
2022-11-04T09:37:06.611Z,74.17
2022-11-04T09:39:36.560Z,74.80
2022-11-04T09:42:27.219Z,74.80
2022-11-04T09:47:36.104Z,73.29
2022-11-04T09:50:12.164Z,73.48
2022-11-04T09:52:44.647Z,72.86
2022-11-04T09:55:23.005Z,71.83
2022-11-04T09:57:58.715Z,73.29
2022-11-04T10:00:31.442Z,72.95
2022-11-04T10:03:04.538Z,73.30
2022-11-04T10:05:45.369Z,69.41
2022-11-04T10:08:38.425Z,70.87
2022-11-04T10:11:17.003Z,69.51
2022-11-04T10:14:09.078Z,70.03
2022-11-04T10:16:59.902Z,70.75
2022-11-04T10:19:47.052Z,68.84
2022-11-04T10:22:31.238Z,70.66
2022-11-04T10:25:15.757Z,70.73
2022-11-04T10:27:48.202Z,70.75
2022-11-04T10:30:24.699Z,71.05
2022-11-04T10:33:13.931Z,70.24
2022-11-04T10:35:49.614Z,71.05
2022-11-04T10:38:22.551Z,71.65
2022-11-04T10:40:55.883Z,71.39
2022-11-04T10:43:37.885Z,71.39
2022-11-04T10:46:41.822Z,72.52
2022-11-04T10:49:25.095Z,72.52
2022-11-04T10:51:57.568Z,72.14
2022-11-04T10:54:28.441Z,72.97
2022-11-04T10:56:58.517Z,72.35
2022-11-04T10:59:33.674Z,71.96
2022-11-04T11:02:05.169Z,72.60
2022-11-04T11:04:38.019Z,71.41
2022-11-04T11:07:10.488Z,71.41
2022-11-04T11:09:54.406Z,71.18
2022-11-04T11:12:50.000Z,70.67
2022-11-04T11:15:00.496Z,71.02
2022-11-04T11:17:39.128Z,70.50
2022-11-04T11:20:23.417Z,71.03
2022-11-04T11:22:56.549Z,70.39
2022-11-04T11:25:35.040Z,70.87
2022-11-04T11:28:14.005Z,70.75
2022-11-04T11:30:49.883Z,71.13
2022-11-04T11:33:37.712Z,70.26
2022-11-04T11:36:23.010Z,70.26
2022-11-04T11:39:15.476Z,68.02
2022-11-04T11:41:56.757Z,68.02
2022-11-04T11:44:36.945Z,66.69
2022-11-04T11:47:09.379Z,66.69
2022-11-04T11:49:39.456Z,66.30
2022-11-04T11:52:24.517Z,67.25
2022-11-04T11:54:57.301Z,67.84
2022-11-04T11:57:32.756Z,67.84
2022-11-04T12:02:50.578Z,67.20
2022-11-04T12:14:00.323Z,66.65
2022-11-04T12:16:35.918Z,67.84
2022-11-04T12:19:27.778Z,67.62
2022-11-04T12:22:12.732Z,66.99
2022-11-04T12:24:45.831Z,67.00
2022-11-04T12:27:50.788Z,68.28
2022-11-04T12:30:32.414Z,68.35
2022-11-04T12:33:08.282Z,67.62
2022-11-04T12:35:46.701Z,67.03
2022-11-04T12:38:29.867Z,68.72
2022-11-04T12:41:37.540Z,67.94
2022-11-04T12:43:42.701Z,67.38
2022-11-04T12:46:40.246Z,66.58
2022-11-04T12:49:14.081Z,67.32
2022-11-04T12:51:55.812Z,68.17
2022-11-04T12:54:37.198Z,67.88
2022-11-04T12:57:26.501Z,68.46
2022-11-04T12:59:59.364Z,68.56
2022-11-04T13:02:35.301Z,68.50
2022-11-04T13:05:11.086Z,68.15
2022-11-04T13:07:46.448Z,67.79
2022-11-04T13:10:26.328Z,68.65
2022-11-04T13:13:00.756Z,68.65
2022-11-04T13:15:33.868Z,68.65
2022-11-04T13:18:08.839Z,68.67
2022-11-04T13:20:53.262Z,67.86
2022-11-04T13:23:44.127Z,67.51
2022-11-04T13:26:17.324Z,68.36
2022-11-04T13:28:51.393Z,66.71
2022-11-04T13:31:48.131Z,66.39
2022-11-04T13:34:39.276Z,65.99
2022-11-04T13:37:14.795Z,66.54
2022-11-04T13:39:53.158Z,66.07
2022-11-04T13:42:37.481Z,67.18
2022-11-04T13:45:14.732Z,67.18
2022-11-04T13:47:53.463Z,66.94
2022-11-04T13:50:37.204Z,66.12
2022-11-04T13:53:09.898Z,66.44
2022-11-04T13:55:52.287Z,67.04
2022-11-04T13:58:25.095Z,66.30
2022-11-04T14:01:14.298Z,66.78
2022-11-04T14:04:04.942Z,65.81
2022-11-04T14:06:57.255Z,65.67
2022-11-04T14:09:38.832Z,65.87
2022-11-04T14:12:20.461Z,66.20
2022-11-04T14:14:53.407Z,66.40
2022-11-04T14:17:38.152Z,66.79
2022-11-04T14:20:26.153Z,66.75
2022-11-04T14:22:59.583Z,67.18
2022-11-04T14:25:35.431Z,67.88
2022-11-04T14:28:13.451Z,68.52
2022-11-04T14:30:54.389Z,68.27
2022-11-04T14:33:54.313Z,67.88
2022-11-04T14:36:27.122Z,67.89
2022-11-04T14:39:05.870Z,67.41
2022-11-04T14:41:56.658Z,67.80
2022-11-04T14:44:31.920Z,68.25
2022-11-04T14:47:04.794Z,68.09
2022-11-04T14:49:49.317Z,68.09
2022-11-04T14:52:22.477Z,68.40
2022-11-04T14:54:55.569Z,68.38
2022-11-04T14:57:25.674Z,68.38
2022-11-04T14:59:55.482Z,68.11
2022-11-04T15:02:31.316Z,68.47
2022-11-04T15:05:02.887Z,69.06
2022-11-04T15:07:38.397Z,68.80
2022-11-04T15:10:20.441Z,69.34
2022-11-04T15:12:54.802Z,69.42
2022-11-04T15:15:29.876Z,69.48
2022-11-04T15:18:07.408Z,70.70
2022-11-04T15:20:40.362Z,70.24
2022-11-04T15:23:13.334Z,67.82
2022-11-04T15:25:48.925Z,66.98
2022-11-04T15:28:21.634Z,66.22
2022-11-04T15:31:06.466Z,65.45
2022-11-04T15:33:41.987Z,66.65
2022-11-04T15:36:20.225Z,67.52
2022-11-04T15:38:58.773Z,68.09
2022-11-04T15:41:49.013Z,68.86
2022-11-04T15:44:36.677Z,68.72
2022-11-04T15:47:21.235Z,69.32
2022-11-04T15:49:53.381Z,70.56
2022-11-04T15:52:26.762Z,71.02
2022-11-04T15:54:59.044Z,71.31
2022-11-04T15:57:38.028Z,72.94
2022-11-04T16:00:18.138Z,72.94
2022-11-04T16:02:59.632Z,73.98
2022-11-04T16:05:37.973Z,73.16
2022-11-04T16:08:28.662Z,73.91
2022-11-04T16:11:20.513Z,73.22
2022-11-04T16:13:51.126Z,72.67
2022-11-04T16:16:26.977Z,72.67
2022-11-04T16:18:59.723Z,73.33
2022-11-04T16:21:36.142Z,73.75
2022-11-04T16:24:24.738Z,73.25
2022-11-04T16:26:57.545Z,73.58
2022-11-04T16:29:33.100Z,74.87
2022-11-04T16:32:29.491Z,75.21
2022-11-04T16:35:02.090Z,74.75
2022-11-04T16:37:32.631Z,74.27
2022-11-04T16:40:04.072Z,74.38
2022-11-04T16:42:33.553Z,74.64
2022-11-04T16:45:05.179Z,75.24
2022-11-04T16:47:37.956Z,75.15
2022-11-04T16:50:10.557Z,75.60
2022-11-04T16:52:44.176Z,76.46
2022-11-04T16:55:12.504Z,76.46
2022-11-04T16:57:44.036Z,75.87
2022-11-04T17:00:24.121Z,76.07
2022-11-04T17:02:54.068Z,76.24
2022-11-04T17:05:23.813Z,76.31
2022-11-04T17:07:57.704Z,76.37
2022-11-04T17:10:28.312Z,77.34
2022-11-04T17:12:58.032Z,76.82
2022-11-04T17:15:27.810Z,77.32
2022-11-04T17:17:57.503Z,76.97
2022-11-04T17:20:27.389Z,76.98
2022-11-04T17:22:57.126Z,76.37
2022-11-04T17:25:29.712Z,76.65
2022-11-04T17:27:59.590Z,76.73
2022-11-04T17:30:29.373Z,77.84
2022-11-04T17:32:59.927Z,76.99
2022-11-04T17:35:29.734Z,77.92
2022-11-04T17:37:59.492Z,77.48
2022-11-04T17:40:29.187Z,77.19
2022-11-04T17:43:16.795Z,77.13
2022-11-04T17:45:48.363Z,76.65
2022-11-04T17:48:18.216Z,76.59
2022-11-04T17:50:48.282Z,76.55
2022-11-04T17:53:18.174Z,77.44
2022-11-04T17:55:48.420Z,77.14
2022-11-04T17:58:18.220Z,77.14
2022-11-04T18:00:48.157Z,76.60
2022-11-04T18:03:17.901Z,76.72
2022-11-04T18:05:47.714Z,76.81
2022-11-04T18:08:17.727Z,77.28
2022-11-04T18:10:48.104Z,77.41
2022-11-04T18:13:17.933Z,77.41
2022-11-04T18:15:48.136Z,77.92
2022-11-04T18:18:17.655Z,77.51
2022-11-04T18:20:48.223Z,77.81
2022-11-04T18:23:18.146Z,78.03
2022-11-04T18:25:50.789Z,78.29
2022-11-04T18:28:19.772Z,78.26
2022-11-04T18:30:49.375Z,78.31
2022-11-04T18:33:19.371Z,78.22
2022-11-04T18:35:49.095Z,77.85
2022-11-04T18:38:18.847Z,77.33
2022-11-04T18:40:48.604Z,77.72
2022-11-04T18:43:18.405Z,77.45
2022-11-04T18:45:48.477Z,77.28
2022-11-04T18:48:18.312Z,77.64
2022-11-04T18:50:48.754Z,77.54
2022-11-04T18:53:22.841Z,77.66
2022-11-04T18:55:50.200Z,77.36
2022-11-04T18:58:19.793Z,76.87
2022-11-04T19:00:49.672Z,77.31
2022-11-04T19:03:20.993Z,77.81
2022-11-04T19:05:50.724Z,77.87
2022-11-04T19:08:20.471Z,77.70
2022-11-04T19:11:00.769Z,77.31
2022-11-04T19:13:21.837Z,77.44
2022-11-04T19:15:51.925Z,77.72
2022-11-04T19:18:21.692Z,77.91
2022-11-04T19:20:51.445Z,78.05
2022-11-04T19:23:21.575Z,78.25
2022-11-04T19:25:51.303Z,78.00
2022-11-04T19:28:37.317Z,78.10
2022-11-04T19:30:57.974Z,78.39
2022-11-04T19:33:28.030Z,79.43
2022-11-04T19:35:58.930Z,79.43
2022-11-04T19:38:29.332Z,78.63
2022-11-04T19:41:04.581Z,78.64
2022-11-04T19:43:35.098Z,78.85
2022-11-04T19:46:06.614Z,78.72
2022-11-04T19:48:36.468Z,78.46
2022-11-04T19:51:06.317Z,78.73
2022-11-04T19:53:36.630Z,78.80
2022-11-04T19:56:08.385Z,78.17
2022-11-04T19:58:38.870Z,78.70
2022-11-04T20:01:09.363Z,79.45
2022-11-04T20:03:39.550Z,78.91
2022-11-04T20:06:12.698Z,79.32
2022-11-04T20:08:45.099Z,79.38
2022-11-04T20:11:15.551Z,78.61
2022-11-04T20:13:47.233Z,79.16
2022-11-04T20:16:25.312Z,78.98
2022-11-04T20:18:58.335Z,79.40
2022-11-04T20:21:32.237Z,79.77
2022-11-04T20:24:04.626Z,79.57
2022-11-04T20:26:35.859Z,79.54
2022-11-04T20:29:06.822Z,79.31
2022-11-04T20:31:39.240Z,79.69
2022-11-04T20:34:10.229Z,79.99
2022-11-04T20:36:41.011Z,79.84
2022-11-04T20:39:21.857Z,79.93
2022-11-04T20:41:51.678Z,80.49
2022-11-04T20:44:21.904Z,80.80
2022-11-04T20:46:52.019Z,80.69
2022-11-04T20:49:22.104Z,81.03
2022-11-04T20:51:55.334Z,81.16
2022-11-04T20:54:24.652Z,80.43
2022-11-04T20:56:54.561Z,80.13
2022-11-04T20:59:24.463Z,80.48
2022-11-04T21:01:54.707Z,80.18
2022-11-04T21:04:24.474Z,80.23
2022-11-04T21:06:54.314Z,80.25
2022-11-04T21:09:24.062Z,80.09
2022-11-04T21:11:54.172Z,79.78
2022-11-04T21:14:23.604Z,80.65
2022-11-04T21:16:53.745Z,80.42
2022-11-04T21:19:23.577Z,81.14
2022-11-04T21:21:53.576Z,81.20
2022-11-04T21:24:23.390Z,80.75
2022-11-04T21:26:53.145Z,80.83
2022-11-04T21:29:23.191Z,81.07
2022-11-04T21:31:53.518Z,80.13
2022-11-04T21:34:23.032Z,80.13
2022-11-04T21:36:53.285Z,80.33
2022-11-04T21:39:23.041Z,80.49
2022-11-04T21:41:52.842Z,80.07
2022-11-04T21:44:23.758Z,80.63
2022-11-04T21:46:53.640Z,80.71
2022-11-04T21:49:23.437Z,81.32
2022-11-04T21:51:53.190Z,82.64
2022-11-04T21:54:23.024Z,82.37
2022-11-04T21:56:52.777Z,81.44
2022-11-04T21:59:22.530Z,81.49
2022-11-04T22:01:53.048Z,81.41
2022-11-04T22:04:22.886Z,80.99
2022-11-04T22:06:52.399Z,80.97
2022-11-04T22:09:22.159Z,80.48
2022-11-04T22:11:51.935Z,80.22
2022-11-04T22:14:21.764Z,80.63
2022-11-04T22:16:51.583Z,81.35
2022-11-04T22:19:21.354Z,81.53
2022-11-04T22:21:51.154Z,81.54
2022-11-04T22:24:21.100Z,81.61
2022-11-04T22:26:51.220Z,81.90
2022-11-04T22:29:20.986Z,82.26
2022-11-04T22:31:50.716Z,82.22
2022-11-04T22:34:20.214Z,81.94
2022-11-04T22:36:50.037Z,82.40
2022-11-04T22:39:19.952Z,82.17
2022-11-04T22:41:49.861Z,82.29
2022-11-04T22:44:19.483Z,82.05
2022-11-04T22:46:49.548Z,82.08
2022-11-04T22:49:19.401Z,81.97
2022-11-04T22:51:49.241Z,81.39
2022-11-04T22:54:18.729Z,81.24
2022-11-04T22:56:48.534Z,81.34
2022-11-04T22:59:18.433Z,81.57
2022-11-04T23:01:48.723Z,81.73
2022-11-04T23:04:18.674Z,82.44
2022-11-04T23:06:48.428Z,82.76
2022-11-04T23:09:18.302Z,81.92
2022-11-04T23:12:05.573Z,81.64
2022-11-04T23:14:37.083Z,81.28
2022-11-04T23:17:38.659Z,81.44
2022-11-04T23:20:12.984Z,81.12
2022-11-04T23:23:00.812Z,81.57
2022-11-04T23:25:31.018Z,80.90
2022-11-04T23:28:18.355Z,80.90
2022-11-04T23:30:51.137Z,81.57
2022-11-04T23:33:22.517Z,81.31
2022-11-04T23:36:09.769Z,81.31
2022-11-04T23:38:39.514Z,81.03
2022-11-04T23:41:26.996Z,80.78
2022-11-04T23:43:56.771Z,80.48
2022-11-04T23:46:44.358Z,82.00
2022-11-04T23:49:32.002Z,81.10
2022-11-04T23:52:19.155Z,81.66
2022-11-04T23:55:06.958Z,81.30
2022-11-04T23:57:54.656Z,81.35
